createdAt,value
2016-02-23T00:00:53.953Z,0
2016-02-23T00:01:53.925Z,0
2016-02-23T00:02:53.928Z,0
2016-02-23T00:03:53.899Z,0
2016-02-23T00:04:53.878Z,0
2016-02-23T00:05:53.834Z,0
2016-02-23T00:06:53.634Z,0
2016-02-23T00:07:53.777Z,0
2016-02-23T00:08:53.750Z,0
2016-02-23T00:09:53.736Z,0
2016-02-23T00:10:53.707Z,0
2016-02-23T00:11:53.680Z,0
2016-02-23T00:12:53.885Z,0
2016-02-23T00:13:53.622Z,0
2016-02-23T00:14:53.608Z,0
2016-02-23T00:15:53.580Z,0
2016-02-23T00:16:53.583Z,0
2016-02-23T00:17:53.523Z,0
2016-02-23T00:18:53.526Z,0
2016-02-23T00:19:53.497Z,0
2016-02-23T00:20:53.485Z,0
2016-02-23T00:21:53.436Z,0
2016-02-23T00:22:53.397Z,0
2016-02-23T00:23:53.372Z,0
2016-02-23T00:24:53.332Z,0
2016-02-23T00:25:53.293Z,0
2016-02-23T00:26:53.271Z,0
2016-02-23T00:27:53.238Z,0
2016-02-23T00:28:53.237Z,0
2016-02-23T00:29:53.173Z,0
2016-02-23T00:30:53.172Z,0
2016-02-23T00:31:53.109Z,0
2016-02-23T00:32:53.094Z,0
2016-02-23T00:33:53.049Z,0
2016-02-23T00:34:53.036Z,0
2016-02-23T00:35:53.021Z,0
2016-02-23T00:36:53.272Z,0
2016-02-23T00:37:52.961Z,0
2016-02-23T00:38:52.932Z,0
2016-02-23T00:39:52.920Z,0
2016-02-23T00:40:52.921Z,0
2016-02-23T00:41:53.001Z,0
2016-02-23T00:42:52.870Z,0
2016-02-23T00:43:52.810Z,0
2016-02-23T00:44:52.797Z,0
2016-02-23T00:45:52.754Z,0
2016-02-23T00:46:52.772Z,0
2016-02-23T00:47:52.711Z,0
2016-02-23T00:48:52.684Z,0
2016-02-23T00:49:52.639Z,0
2016-02-23T00:50:52.641Z,0
2016-02-23T00:51:52.613Z,0
2016-02-23T00:52:52.600Z,0
2016-02-23T00:53:52.572Z,0
2016-02-23T00:54:52.528Z,0
2016-02-23T00:55:52.499Z,0
2016-02-23T00:56:52.767Z,0
2016-02-23T00:57:52.489Z,0
2016-02-23T00:58:52.444Z,0
2016-02-23T00:59:52.416Z,0
2016-02-23T01:00:52.403Z,0
2016-02-23T01:01:52.374Z,0
2016-02-23T01:02:52.377Z,0
2016-02-23T01:03:52.318Z,0
2016-02-23T01:04:51.820Z,0
2016-02-23T01:05:52.260Z,0
2016-02-23T01:06:52.247Z,0
2016-02-23T01:07:52.218Z,0
2016-02-23T01:08:52.221Z,0
2016-02-23T01:09:52.162Z,0
2016-02-23T01:10:52.148Z,0
2016-02-23T01:11:52.121Z,0
2016-02-23T01:12:52.092Z,0
2016-02-23T01:13:52.094Z,0
2016-02-23T01:14:52.050Z,0
2016-02-23T01:15:52.006Z,0
2016-02-23T01:16:51.993Z,0
2016-02-23T01:17:51.964Z,0
2016-02-23T01:18:51.951Z,0
2016-02-23T01:19:51.907Z,0
2016-02-23T01:20:51.879Z,0
2016-02-23T01:21:51.866Z,0
2016-02-23T01:22:51.853Z,0
2016-02-23T01:23:51.824Z,0
2016-02-23T01:24:51.812Z,0
2016-02-23T01:25:51.767Z,0
2016-02-23T01:26:51.754Z,0
2016-02-23T01:27:51.960Z,0
2016-02-23T01:28:51.697Z,0
2016-02-23T01:29:51.544Z,0
2016-02-23T01:30:51.655Z,0
2016-02-23T01:31:51.643Z,0
2016-02-23T01:32:51.724Z,0
2016-02-23T01:33:51.586Z,0
2016-02-23T01:34:51.541Z,0
2016-02-23T01:35:51.559Z,0
2016-02-23T01:36:51.500Z,0
2016-02-23T01:37:51.534Z,0
2016-02-23T01:38:51.443Z,0
2016-02-23T01:39:51.430Z,0
2016-02-23T01:40:51.417Z,0
2016-02-23T01:41:51.388Z,0
2016-02-23T01:42:51.360Z,0
2016-02-23T01:43:51.581Z,0
2016-02-23T01:44:51.303Z,0
2016-02-23T01:45:51.274Z,0
2016-02-23T01:46:51.261Z,0
2016-02-23T01:47:51.248Z,0
2016-02-23T01:48:51.220Z,0
2016-02-23T01:49:51.191Z,0
2016-02-23T01:50:51.162Z,0
2016-02-23T01:51:51.118Z,0
2016-02-23T01:52:51.089Z,0
2016-02-23T01:53:51.092Z,0
2016-02-23T01:54:51.033Z,0
2016-02-23T01:55:51.019Z,0
2016-02-23T01:56:51.007Z,0
2016-02-23T01:57:50.244Z,0
2016-02-23T01:58:50.965Z,0
2016-02-23T01:59:50.937Z,0
2016-02-23T02:00:50.908Z,0
2016-02-23T02:01:50.879Z,0
2016-02-23T02:02:50.851Z,0
2016-02-23T02:03:50.838Z,0
2016-02-23T02:04:50.810Z,0
2016-02-23T02:05:50.797Z,0
2016-02-23T02:06:50.815Z,0
2016-02-23T02:07:50.740Z,0
2016-02-23T02:08:50.711Z,0
2016-02-23T02:09:50.682Z,0
2016-02-23T02:10:50.653Z,0
2016-02-23T02:11:50.626Z,0
2016-02-23T02:12:50.628Z,0
2016-02-23T02:13:50.599Z,0
2016-02-23T02:14:50.555Z,0
2016-02-23T02:15:50.542Z,0
2016-02-23T02:16:50.529Z,0
2016-02-23T02:17:50.485Z,0
2016-02-23T02:18:50.472Z,0
2016-02-23T02:19:50.490Z,0
2016-02-23T02:20:50.431Z,0
2016-02-23T02:21:50.387Z,0
2016-02-23T02:22:50.358Z,0
2016-02-23T02:23:50.329Z,0
2016-02-23T02:24:50.317Z,0
2016-02-23T02:25:50.288Z,0
2016-02-23T02:26:50.259Z,0
2016-02-23T02:27:50.247Z,0
2016-02-23T02:28:50.217Z,0
2016-02-23T02:29:50.439Z,0
2016-02-23T02:30:50.181Z,0
2016-02-23T02:31:50.168Z,0
2016-02-23T02:32:50.124Z,0
2016-02-23T02:33:50.096Z,0
2016-02-23T02:34:50.129Z,0
2016-02-23T02:35:50.069Z,0
2016-02-23T02:36:50.041Z,0
2016-02-23T02:37:50.028Z,0
2016-02-23T02:38:49.985Z,0
2016-02-23T02:39:49.971Z,0
2016-02-23T02:40:49.926Z,0
2016-02-23T02:41:49.899Z,0
2016-02-23T02:42:49.885Z,0
2016-02-23T02:43:49.840Z,0
2016-02-23T02:44:49.812Z,0
2016-02-23T02:45:49.800Z,0
2016-02-23T02:46:49.770Z,0
2016-02-23T02:47:49.774Z,0
2016-02-23T02:48:49.714Z,0
2016-02-23T02:49:49.685Z,0
2016-02-23T02:50:49.657Z,0
2016-02-23T02:51:49.644Z,0
2016-02-23T02:52:49.614Z,0
2016-02-23T02:53:49.587Z,0
2016-02-23T02:54:49.574Z,0
2016-02-23T02:55:49.561Z,0
2016-02-23T02:56:49.517Z,0
2016-02-23T02:57:49.488Z,0
2016-02-23T02:58:49.522Z,0
2016-02-23T02:59:49.447Z,0
2016-02-23T03:00:49.433Z,0
2016-02-23T03:01:49.405Z,0
2016-02-23T03:02:49.377Z,0
2016-02-23T03:03:49.349Z,0
2016-02-23T03:04:49.319Z,0
2016-02-23T03:05:49.307Z,0
2016-02-23T03:06:49.278Z,0
2016-02-23T03:07:49.249Z,0
2016-02-23T03:08:49.221Z,0
2016-02-23T03:09:49.207Z,0
2016-02-23T03:10:49.179Z,0
2016-02-23T03:11:49.150Z,0
2016-02-23T03:12:49.123Z,0
2016-02-23T03:13:49.140Z,0
2016-02-23T03:14:49.065Z,0
2016-02-23T03:15:49.084Z,0
2016-02-23T03:16:49.023Z,0
2016-02-23T03:17:48.995Z,0
2016-02-23T03:18:48.967Z,0
2016-02-23T03:19:48.953Z,0
2016-02-23T03:20:48.972Z,0
2016-02-23T03:21:48.897Z,0
2016-02-23T03:22:48.883Z,0
2016-02-23T03:23:48.871Z,0
2016-02-23T03:24:48.842Z,0
2016-02-23T03:25:48.813Z,0
2016-02-23T03:26:48.817Z,0
2016-02-23T03:27:48.772Z,0
2016-02-23T03:28:48.759Z,0
2016-02-23T03:29:48.714Z,0
2016-02-23T03:30:48.686Z,0
2016-02-23T03:31:48.938Z,0
2016-02-23T03:32:48.645Z,0
2016-02-23T03:33:48.616Z,0
2016-02-23T03:34:48.587Z,0
2016-02-23T03:35:48.560Z,0
2016-02-23T03:36:48.640Z,0
2016-02-23T03:37:48.533Z,0
2016-02-23T03:38:48.504Z,0
2016-02-23T03:39:48.476Z,0
2016-02-23T03:40:47.713Z,0
2016-02-23T03:41:48.419Z,0
2016-02-23T03:42:48.374Z,0
2016-02-23T03:43:48.362Z,0
2016-02-23T03:44:48.333Z,0
2016-02-23T03:45:48.305Z,0
2016-02-23T03:46:48.276Z,0
2016-02-23T03:47:48.262Z,0
2016-02-23T03:48:48.235Z,0
2016-02-23T03:49:48.206Z,0
2016-02-23T03:50:48.193Z,0
2016-02-23T03:51:48.165Z,0
2016-02-23T03:52:48.136Z,0
2016-02-23T03:53:48.123Z,0
2016-02-23T03:54:48.095Z,0
2016-02-23T03:55:48.081Z,0
2016-02-23T03:56:48.052Z,0
2016-02-23T03:57:48.025Z,0
2016-02-23T03:58:47.980Z,0
2016-02-23T03:59:47.967Z,0
2016-02-23T04:00:47.783Z,0
2016-02-23T04:01:47.910Z,0
2016-02-23T04:02:47.882Z,0
2016-02-23T04:03:47.869Z,0
2016-02-23T04:04:47.855Z,0
2016-02-23T04:05:47.827Z,0
2016-02-23T04:06:47.799Z,0
2016-02-23T04:07:47.770Z,0
2016-02-23T04:08:47.741Z,0
2016-02-23T04:09:47.713Z,0
2016-02-23T04:10:47.685Z,0
2016-02-23T04:11:47.671Z,0
2016-02-23T04:12:47.643Z,0
2016-02-23T04:13:47.615Z,0
2016-02-23T04:14:47.585Z,0
2016-02-23T04:15:47.573Z,0
2016-02-23T04:16:47.545Z,0
2016-02-23T04:17:47.781Z,0
2016-02-23T04:18:47.518Z,0
2016-02-23T04:19:47.521Z,0
2016-02-23T04:20:47.445Z,0
2016-02-23T04:21:47.433Z,0
2016-02-23T04:22:47.498Z,0
2016-02-23T04:23:47.375Z,0
2016-02-23T04:24:47.347Z,0
2016-02-23T04:25:47.334Z,0
2016-02-23T04:26:47.289Z,0
2016-02-23T04:27:47.262Z,0
2016-02-23T04:28:47.264Z,0
2016-02-23T04:29:47.235Z,0
2016-02-23T04:30:47.192Z,0
2016-02-23T04:31:47.225Z,0
2016-02-23T04:32:47.134Z,0
2016-02-23T04:33:47.403Z,0
2016-02-23T04:34:47.108Z,0
2016-02-23T04:35:47.080Z,0
2016-02-23T04:36:47.036Z,0
2016-02-23T04:37:47.069Z,0
2016-02-23T04:38:46.993Z,0
2016-02-23T04:39:46.996Z,0
2016-02-23T04:40:46.952Z,0
2016-02-23T04:41:46.924Z,0
2016-02-23T04:42:46.910Z,0
2016-02-23T04:43:46.882Z,0
2016-02-23T04:44:46.854Z,0
2016-02-23T04:45:46.826Z,0
2016-02-23T04:46:46.813Z,0
2016-02-23T04:47:46.784Z,0
2016-02-23T04:48:46.770Z,0
2016-02-23T04:49:46.727Z,0
2016-02-23T04:50:46.714Z,0
2016-02-23T04:51:46.669Z,0
2016-02-23T04:52:46.688Z,0
2016-02-23T04:53:46.612Z,0
2016-02-23T04:54:46.631Z,0
2016-02-23T04:55:46.571Z,0
2016-02-23T04:56:46.605Z,0
2016-02-23T04:57:46.530Z,0
2016-02-23T04:58:46.517Z,0
2016-02-23T04:59:46.503Z,0
2016-02-23T05:00:46.303Z,0
2016-02-23T05:01:46.430Z,0
2016-02-23T05:02:46.434Z,0
2016-02-23T05:03:46.358Z,0
2016-02-23T05:04:46.377Z,0
2016-02-23T05:05:46.332Z,0
2016-02-23T05:06:46.335Z,0
2016-02-23T05:07:46.291Z,0
2016-02-23T05:08:46.138Z,0
2016-02-23T05:09:46.233Z,0
2016-02-23T05:10:46.220Z,0
2016-02-23T05:11:46.177Z,0
2016-02-23T05:12:46.163Z,0
2016-02-23T05:13:46.166Z,0
2016-02-23T05:14:46.326Z,0
2016-02-23T05:15:46.078Z,0
2016-02-23T05:16:46.049Z,0
2016-02-23T05:17:46.052Z,0
2016-02-23T05:18:46.007Z,0
2016-02-23T05:19:46.057Z,0
2016-02-23T05:20:45.951Z,0
2016-02-23T05:21:45.937Z,0
2016-02-23T05:22:45.893Z,0
2016-02-23T05:23:45.756Z,0
2016-02-23T05:24:46.087Z,0
2016-02-23T05:25:45.839Z,0
2016-02-23T05:26:45.811Z,0
2016-02-23T05:27:45.813Z,0
2016-02-23T05:28:45.769Z,0
2016-02-23T05:29:45.741Z,0
2016-02-23T05:30:46.056Z,0
2016-02-23T05:31:45.667Z,0
2016-02-23T05:32:45.655Z,0
2016-02-23T05:33:46.017Z,0
2016-02-23T05:34:45.629Z,0
2016-02-23T05:35:45.585Z,0
2016-02-23T05:36:45.556Z,0
2016-02-23T05:37:45.544Z,0
2016-02-23T05:38:45.343Z,0
2016-02-23T05:39:45.502Z,0
2016-02-23T05:40:45.457Z,0
2016-02-23T05:41:45.430Z,0
2016-02-23T05:42:45.416Z,0
2016-02-23T05:43:45.372Z,0
2016-02-23T05:44:45.421Z,0
2016-02-23T05:45:45.346Z,0
2016-02-23T05:46:45.349Z,0
2016-02-23T05:47:45.289Z,0
2016-02-23T05:48:45.292Z,0
2016-02-23T05:49:45.232Z,0
2016-02-23T05:50:45.250Z,0
2016-02-23T05:51:45.176Z,0
2016-02-23T05:52:45.178Z,0
2016-02-23T05:53:45.148Z,0
2016-02-23T05:54:45.136Z,0
2016-02-23T05:55:45.092Z,0
2016-02-23T05:56:45.063Z,0
2016-02-23T05:57:45.050Z,0
2016-02-23T05:58:45.006Z,0
2016-02-23T05:59:44.992Z,0
2016-02-23T06:00:44.996Z,0
2016-02-23T06:01:44.936Z,0
2016-02-23T06:02:44.938Z,0
2016-02-23T06:03:44.878Z,0
2016-02-23T06:04:44.881Z,0
2016-02-23T06:05:44.853Z,0
2016-02-23T06:06:44.824Z,0
2016-02-23T06:07:44.796Z,0
2016-02-23T06:08:44.767Z,0
2016-02-23T06:09:44.958Z,0
2016-02-23T06:10:44.726Z,0
2016-02-23T06:11:44.744Z,4
2016-02-23T06:12:44.669Z,4
2016-02-23T06:13:44.655Z,4
2016-02-23T06:14:44.658Z,4
2016-02-23T06:15:44.599Z,0
2016-02-23T06:16:44.773Z,4
2016-02-23T06:17:44.574Z,4
2016-02-23T06:18:44.513Z,4
2016-02-23T06:19:44.516Z,8
2016-02-23T06:20:44.471Z,8
2016-02-23T06:21:44.474Z,8
2016-02-23T06:22:44.445Z,4
2016-02-23T06:23:44.432Z,8
2016-02-23T06:24:44.389Z,8
2016-02-23T06:25:44.359Z,8
2016-02-23T06:26:44.316Z,8
2016-02-23T06:27:44.162Z,12
2016-02-23T06:28:44.275Z,12
2016-02-23T06:29:44.261Z,12
2016-02-23T06:30:44.233Z,12
2016-02-23T06:31:44.204Z,16
2016-02-23T06:32:44.160Z,16
2016-02-23T06:33:44.147Z,16
2016-02-23T06:34:44.119Z,20
2016-02-23T06:35:44.137Z,20
2016-02-23T06:36:44.078Z,24
2016-02-23T06:37:44.080Z,24
2016-02-23T06:38:44.051Z,24
2016-02-23T06:39:43.991Z,24
2016-02-23T06:40:43.978Z,24
2016-02-23T06:41:43.935Z,24
2016-02-23T06:42:43.921Z,28
2016-02-23T06:43:43.893Z,24
2016-02-23T06:44:43.880Z,32
2016-02-23T06:45:43.851Z,36
2016-02-23T06:46:43.838Z,40
2016-02-23T06:47:43.794Z,48
2016-02-23T06:48:43.765Z,52
2016-02-23T06:49:43.752Z,60
2016-02-23T06:50:43.771Z,64
2016-02-23T06:51:43.726Z,68
2016-02-23T06:52:43.698Z,76
2016-02-23T06:53:43.654Z,88
2016-02-23T06:54:43.625Z,88
2016-02-23T06:55:43.598Z,88
2016-02-23T06:56:43.584Z,88
2016-02-23T06:57:43.555Z,84
2016-02-23T06:58:43.543Z,100
2016-02-23T06:59:43.498Z,100
2016-02-23T07:00:43.469Z,140
2016-02-23T07:01:43.456Z,132
2016-02-23T07:02:43.428Z,124
2016-02-23T07:03:43.400Z,124
2016-02-23T07:04:43.387Z,132
2016-02-23T07:05:43.358Z,144
2016-02-23T07:06:43.345Z,128
2016-02-23T07:07:43.300Z,140
2016-02-23T07:08:43.273Z,132
2016-02-23T07:09:43.275Z,148
2016-02-23T07:10:43.262Z,160
2016-02-23T07:11:43.218Z,176
2016-02-23T07:12:43.174Z,160
2016-02-23T07:13:43.396Z,152
2016-02-23T07:14:43.130Z,164
2016-02-23T07:15:43.101Z,180
2016-02-23T07:16:43.104Z,180
2016-02-23T07:17:43.060Z,196
2016-02-23T07:18:43.093Z,236
2016-02-23T07:19:43.018Z,208
2016-02-23T07:20:42.974Z,236
2016-02-23T07:21:42.789Z,220
2016-02-23T07:22:42.933Z,240
2016-02-23T07:23:42.904Z,260
2016-02-23T07:24:42.890Z,332
2016-02-23T07:25:42.846Z,412
2016-02-23T07:26:42.849Z,396
2016-02-23T07:27:42.805Z,380
2016-02-23T07:28:42.792Z,352
2016-02-23T07:29:42.764Z,380
2016-02-23T07:30:42.735Z,348
2016-02-23T07:31:42.707Z,328
2016-02-23T07:32:42.695Z,360
2016-02-23T07:33:42.681Z,408
2016-02-23T07:34:42.636Z,368
2016-02-23T07:35:42.609Z,372
2016-02-23T07:36:42.580Z,392
2016-02-23T07:37:42.583Z,416
2016-02-23T07:38:42.538Z,444
2016-02-23T07:39:42.541Z,468
2016-02-23T07:40:42.497Z,436
2016-02-23T07:41:42.469Z,416
2016-02-23T07:42:42.439Z,376
2016-02-23T07:43:42.411Z,368
2016-02-23T07:44:42.383Z,412
2016-02-23T07:45:42.369Z,424
2016-02-23T07:46:42.340Z,412
2016-02-23T07:47:42.327Z,492
2016-02-23T07:48:42.284Z,520
2016-02-23T07:49:42.286Z,568
2016-02-23T07:50:42.243Z,616
2016-02-23T07:51:42.245Z,628
2016-02-23T07:52:42.185Z,672
2016-02-23T07:53:42.188Z,600
2016-02-23T07:54:42.128Z,556
2016-02-23T07:55:42.131Z,580
2016-02-23T07:56:42.087Z,616
2016-02-23T07:57:42.058Z,644
2016-02-23T07:58:42.045Z,588
2016-02-23T07:59:42.032Z,528
2016-02-23T08:00:41.988Z,460
2016-02-23T08:01:41.975Z,476
2016-02-23T08:02:41.931Z,520
2016-02-23T08:03:41.949Z,492
2016-02-23T08:04:42.108Z,500
2016-02-23T08:05:41.907Z,420
2016-02-23T08:06:41.847Z,440
2016-02-23T08:07:41.850Z,444
2016-02-23T08:08:41.791Z,420
2016-02-23T08:09:41.794Z,440
2016-02-23T08:10:41.780Z,492
2016-02-23T08:11:41.720Z,464
2016-02-23T08:12:41.708Z,480
2016-02-23T08:13:41.663Z,436
2016-02-23T08:14:41.666Z,524
2016-02-23T08:15:41.949Z,596
2016-02-23T08:16:41.593Z,748
2016-02-23T08:17:41.643Z,756
2016-02-23T08:18:41.552Z,868
2016-02-23T08:19:41.539Z,736
2016-02-23T08:20:41.729Z,696
2016-02-23T08:21:41.482Z,708
2016-02-23T08:22:41.438Z,660
2016-02-23T08:23:41.424Z,556
2016-02-23T08:24:41.412Z,452
2016-02-23T08:25:41.415Z,460
2016-02-23T08:26:41.354Z,436
2016-02-23T08:27:41.326Z,420
2016-02-23T08:28:41.312Z,396
2016-02-23T08:29:41.285Z,460
2016-02-23T08:30:41.256Z,444
2016-02-23T08:31:41.228Z,456
2016-02-23T08:32:41.198Z,500
2016-02-23T08:33:41.187Z,532
2016-02-23T08:34:41.157Z,564
2016-02-23T08:35:41.128Z,540
2016-02-23T08:36:41.101Z,528
2016-02-23T08:37:41.072Z,564
2016-02-23T08:38:41.075Z,684
2016-02-23T08:39:41.045Z,648
2016-02-23T08:40:41.017Z,616
2016-02-23T08:41:40.973Z,636
2016-02-23T08:42:40.976Z,580
2016-02-23T08:43:40.931Z,568
2016-02-23T08:44:40.981Z,532
2016-02-23T08:45:40.891Z,480
2016-02-23T08:46:40.846Z,472
2016-02-23T08:47:40.833Z,504
2016-02-23T08:48:40.805Z,444
2016-02-23T08:49:40.791Z,460
2016-02-23T08:50:40.794Z,480
2016-02-23T08:51:40.734Z,548
2016-02-23T08:52:40.705Z,580
2016-02-23T08:53:40.693Z,672
2016-02-23T08:54:40.680Z,776
2016-02-23T08:55:40.651Z,756
2016-02-23T08:56:40.607Z,772
2016-02-23T08:57:40.610Z,780
2016-02-23T08:58:40.565Z,800
2016-02-23T08:59:40.537Z,612
2016-02-23T09:00:40.509Z,680
2016-02-23T09:01:40.500Z,624
2016-02-23T09:02:40.456Z,492
2016-02-23T09:03:40.459Z,500
2016-02-23T09:04:40.431Z,504
2016-02-23T09:05:40.406Z,568
2016-02-23T09:06:40.550Z,592
2016-02-23T09:07:40.319Z,776
2016-02-23T09:08:40.306Z,992
2016-02-23T09:09:40.292Z,1096
2016-02-23T09:10:40.264Z,1316
2016-02-23T09:11:40.267Z,1512
2016-02-23T09:12:40.223Z,1648
2016-02-23T09:13:40.210Z,1464
2016-02-23T09:14:40.166Z,1352
2016-02-23T09:15:40.138Z,1604
2016-02-23T09:16:40.124Z,1740
2016-02-23T09:17:40.111Z,1944
2016-02-23T09:18:40.083Z,2444
2016-02-23T09:19:40.054Z,2408
2016-02-23T09:20:40.072Z,2508
2016-02-23T09:21:39.997Z,2580
2016-02-23T09:22:39.999Z,2632
2016-02-23T09:23:39.955Z,2412
2016-02-23T09:24:39.927Z,2048
2016-02-23T09:25:39.899Z,1768
2016-02-23T09:26:39.870Z,1572
2016-02-23T09:27:39.873Z,1460
2016-02-23T09:28:39.823Z,1404
2016-02-23T09:29:39.797Z,1320
2016-02-23T09:30:39.740Z,1196
2016-02-23T09:31:39.715Z,1040
2016-02-23T09:32:39.689Z,968
2016-02-23T09:33:39.636Z,996
2016-02-23T09:34:39.619Z,1104
2016-02-23T09:35:39.601Z,1268
2016-02-23T09:36:39.551Z,1640
2016-02-23T09:37:39.534Z,2196
2016-02-23T09:38:39.487Z,3248
2016-02-23T09:39:39.488Z,3432
2016-02-23T09:40:39.457Z,2896
2016-02-23T09:41:39.426Z,2352
2016-02-23T09:42:39.412Z,2704
2016-02-23T09:43:39.367Z,2492
2016-02-23T09:44:39.337Z,1932
2016-02-23T09:45:39.340Z,1896
2016-02-23T09:46:39.295Z,2124
2016-02-23T09:47:39.266Z,1920
2016-02-23T09:48:39.253Z,2128
2016-02-23T09:49:39.209Z,2380
2016-02-23T09:50:39.211Z,2292
2016-02-23T09:51:39.166Z,1384
2016-02-23T09:52:39.153Z,1228
2016-02-23T09:53:39.124Z,1120
2016-02-23T09:54:39.111Z,1204
2016-02-23T09:55:39.067Z,1488
2016-02-23T09:56:39.038Z,1716
2016-02-23T09:57:39.057Z,1804
2016-02-23T09:58:39.029Z,1880
2016-02-23T09:59:39.015Z,1516
2016-02-23T10:00:38.940Z,1484
2016-02-23T10:01:38.927Z,1864
2016-02-23T10:02:38.899Z,2260
2016-02-23T10:03:38.901Z,1912
2016-02-23T10:04:38.857Z,1664
2016-02-23T10:05:38.829Z,1996
2016-02-23T10:06:38.815Z,2024
2016-02-23T10:07:38.803Z,1628
2016-02-23T10:08:39.009Z,1492
2016-02-23T10:09:38.776Z,1728
2016-02-23T10:10:38.732Z,2024
2016-02-23T10:11:38.720Z,1968
2016-02-23T10:12:38.659Z,1452
2016-02-23T10:13:38.647Z,1164
2016-02-23T10:14:38.618Z,1000
2016-02-23T10:15:38.606Z,1544
2016-02-23T10:16:38.577Z,1660
2016-02-23T10:17:38.548Z,2104
2016-02-23T10:18:38.536Z,1776
2016-02-23T10:19:38.522Z,1608
2016-02-23T10:20:38.478Z,1624
2016-02-23T10:21:38.449Z,1920
2016-02-23T10:22:38.422Z,2180
2016-02-23T10:23:38.408Z,2464
2016-02-23T10:24:38.380Z,2028
2016-02-23T10:25:38.366Z,1916
2016-02-23T10:26:38.322Z,1512
2016-02-23T10:27:38.294Z,2136
2016-02-23T10:28:38.280Z,2728
2016-02-23T10:29:38.158Z,2540
2016-02-23T10:30:38.240Z,2544
2016-02-23T10:31:38.210Z,2028
2016-02-23T10:32:38.182Z,2176
2016-02-23T10:33:38.185Z,2548
2016-02-23T10:34:38.126Z,2428
2016-02-23T10:35:38.128Z,2652
2016-02-23T10:36:38.099Z,2436
2016-02-23T10:37:38.055Z,2104
2016-02-23T10:38:38.043Z,1936
2016-02-23T10:39:38.014Z,2440
2016-02-23T10:40:38.032Z,1848
2016-02-23T10:41:37.973Z,1492
2016-02-23T10:42:37.943Z,1684
2016-02-23T10:43:37.931Z,1840
2016-02-23T10:44:37.902Z,1764
2016-02-23T10:45:37.873Z,1544
2016-02-23T10:46:37.845Z,1216
2016-02-23T10:47:37.832Z,1544
2016-02-23T10:48:37.819Z,2036
2016-02-23T10:49:37.916Z,1920
2016-02-23T10:50:37.762Z,1600
2016-02-23T10:51:37.733Z,1352
2016-02-23T10:52:37.720Z,1564
2016-02-23T10:53:37.708Z,1972
2016-02-23T10:54:37.725Z,1552
2016-02-23T10:55:37.635Z,1260
2016-02-23T10:56:37.606Z,1536
2016-02-23T10:57:37.578Z,2164
2016-02-23T10:58:37.597Z,2792
2016-02-23T10:59:37.536Z,3160
2016-02-23T11:00:37.523Z,2900
2016-02-23T11:01:37.495Z,3544
2016-02-23T11:02:37.466Z,3164
2016-02-23T11:03:37.437Z,3208
2016-02-23T11:04:37.409Z,3868
2016-02-23T11:05:37.615Z,3996
2016-02-23T11:06:37.399Z,3692
2016-02-23T11:07:37.340Z,3000
2016-02-23T11:08:37.342Z,2876
2016-02-23T11:09:37.313Z,3080
2016-02-23T11:10:37.285Z,2528
2016-02-23T11:11:37.272Z,2380
2016-02-23T11:12:37.243Z,2360
2016-02-23T11:13:37.215Z,2380
2016-02-23T11:14:37.201Z,2360
2016-02-23T11:15:37.157Z,2448
2016-02-23T11:16:37.175Z,2592
2016-02-23T11:17:37.131Z,3232
2016-02-23T11:18:37.087Z,2896
2016-02-23T11:19:37.059Z,2596
2016-02-23T11:20:37.045Z,3292
2016-02-23T11:21:37.064Z,2628
2016-02-23T11:22:36.989Z,2000
2016-02-23T11:23:36.960Z,2276
2016-02-23T11:24:36.931Z,3508
2016-02-23T11:25:36.919Z,3772
2016-02-23T11:26:36.906Z,2692
2016-02-23T11:27:36.877Z,2668
2016-02-23T11:28:36.833Z,3080
2016-02-23T11:29:36.820Z,2400
2016-02-23T11:30:36.822Z,2816
2016-02-23T11:31:36.780Z,3380
2016-02-23T11:32:36.750Z,2584
2016-02-23T11:33:36.878Z,2296
2016-02-23T11:34:36.943Z,2588
2016-02-23T11:35:36.680Z,3704
2016-02-23T11:36:36.651Z,3140
2016-02-23T11:37:36.639Z,3812
2016-02-23T11:38:37.126Z,4028
2016-02-23T11:39:36.582Z,2748
2016-02-23T11:40:36.568Z,3472
2016-02-23T11:41:36.571Z,3300
2016-02-23T11:42:36.526Z,2748
2016-02-23T11:43:36.498Z,3304
2016-02-23T11:44:36.471Z,4528
2016-02-23T11:45:36.457Z,3716
2016-02-23T11:46:36.445Z,3120
2016-02-23T11:47:36.415Z,3292
2016-02-23T11:48:36.387Z,3820
2016-02-23T11:49:36.561Z,4324
2016-02-23T11:50:36.345Z,4284
2016-02-23T11:51:36.394Z,3908
2016-02-23T11:52:36.289Z,3724
2016-02-23T11:53:36.230Z,3504
2016-02-23T11:54:36.296Z,3212
2016-02-23T11:55:36.237Z,3572
2016-02-23T11:56:39.342Z,3016
2016-02-23T11:57:36.235Z,3080
2016-02-23T11:58:36.160Z,3944
2016-02-23T11:59:36.147Z,3616
2016-02-23T12:00:36.103Z,3356
2016-02-23T12:01:36.106Z,3700
2016-02-23T12:02:36.234Z,4312
2016-02-23T12:03:36.048Z,4212
2016-02-23T12:04:36.004Z,3384
2016-02-23T12:05:35.992Z,2332
2016-02-23T12:06:35.981Z,2592
2016-02-23T12:07:35.952Z,1880
2016-02-23T12:08:35.923Z,1988
2016-02-23T12:09:35.910Z,2544
2016-02-23T12:10:35.882Z,4044
2016-02-23T12:11:35.868Z,4952
2016-02-23T12:12:35.824Z,5440
2016-02-23T12:13:35.811Z,4600
2016-02-23T12:14:35.985Z,4068
2016-02-23T12:15:35.770Z,3548
2016-02-23T12:16:35.726Z,3360
2016-02-23T12:17:35.712Z,3544
2016-02-23T12:18:35.700Z,3876
2016-02-23T12:19:35.672Z,3504
2016-02-23T12:20:35.659Z,2276
2016-02-23T12:21:35.630Z,3104
2016-02-23T12:22:35.617Z,4892
2016-02-23T12:23:35.620Z,5112
2016-02-23T12:24:35.559Z,5160
2016-02-23T12:25:35.704Z,4472
2016-02-23T12:26:35.613Z,3308
2016-02-23T12:27:35.490Z,2032
2016-02-23T12:28:35.462Z,3332
2016-02-23T12:29:35.448Z,2960
2016-02-23T12:30:35.436Z,4120
2016-02-23T12:31:35.454Z,4456
2016-02-23T12:32:35.395Z,4608
2016-02-23T12:33:35.365Z,4856
2016-02-23T12:34:35.353Z,4224
2016-02-23T12:35:35.324Z,3256
2016-02-23T12:36:35.295Z,3740
2016-02-23T12:37:35.266Z,3364
2016-02-23T12:38:35.270Z,3700
2016-02-23T12:39:35.226Z,4112
2016-02-23T12:40:35.056Z,3880
2016-02-23T12:41:35.169Z,4116
2016-02-23T12:42:35.171Z,4048
2016-02-23T12:43:35.142Z,4516
2016-02-23T12:44:35.145Z,5916
2016-02-23T12:45:35.101Z,4792
2016-02-23T12:46:35.071Z,5160
2016-02-23T12:47:35.060Z,4864
2016-02-23T12:48:35.156Z,3672
2016-02-23T12:49:35.002Z,3164
2016-02-23T12:50:34.990Z,1652
2016-02-23T12:51:34.960Z,1480
2016-02-23T12:52:34.980Z,1748
2016-02-23T12:53:34.935Z,2324
2016-02-23T12:54:34.938Z,3328
2016-02-23T12:55:34.924Z,3416
2016-02-23T12:56:34.849Z,3128
2016-02-23T12:57:34.837Z,2804
2016-02-23T12:58:34.839Z,2392
2016-02-23T12:59:34.997Z,1876
2016-02-23T13:00:34.813Z,1496
2016-02-23T13:01:34.738Z,1564
2016-02-23T13:02:34.709Z,1764
2016-02-23T13:03:34.696Z,2496
2016-02-23T13:04:34.745Z,3400
2016-02-23T13:05:34.655Z,4548
2016-02-23T13:06:34.641Z,5788
2016-02-23T13:07:34.613Z,2864
2016-02-23T13:08:34.584Z,1624
2016-02-23T13:09:34.587Z,1152
2016-02-23T13:10:34.559Z,964
2016-02-23T13:11:34.514Z,928
2016-02-23T13:12:34.501Z,1040
2016-02-23T13:13:34.505Z,968
2016-02-23T13:14:34.289Z,1020
2016-02-23T13:15:34.432Z,1020
2016-02-23T13:16:34.435Z,1060
2016-02-23T13:17:34.374Z,928
2016-02-23T13:18:34.393Z,848
2016-02-23T13:19:34.332Z,1124
2016-02-23T13:20:34.320Z,1220
2016-02-23T13:21:34.308Z,996
2016-02-23T13:22:34.294Z,1008
2016-02-23T13:23:34.250Z,904
2016-02-23T13:24:34.237Z,884
2016-02-23T13:25:34.209Z,908
2016-02-23T13:26:34.179Z,912
2016-02-23T13:27:34.151Z,1120
2016-02-23T13:28:34.137Z,1624
2016-02-23T13:29:34.109Z,2024
2016-02-23T13:30:34.113Z,1936
2016-02-23T13:31:34.084Z,1580
2016-02-23T13:32:34.056Z,1832
2016-02-23T13:33:34.026Z,2200
2016-02-23T13:34:34.014Z,2408
2016-02-23T13:35:34.001Z,2528
2016-02-23T13:36:33.957Z,2740
2016-02-23T13:37:33.945Z,2916
2016-02-23T13:38:33.900Z,3000
2016-02-23T13:39:33.902Z,3124
2016-02-23T13:40:33.905Z,3272
2016-02-23T13:41:33.829Z,3384
2016-02-23T13:42:34.161Z,3420
2016-02-23T13:43:33.788Z,2908
2016-02-23T13:44:33.775Z,1968
2016-02-23T13:45:33.966Z,1612
2016-02-23T13:46:33.733Z,1784
2016-02-23T13:47:33.689Z,2316
2016-02-23T13:48:33.676Z,2024
2016-02-23T13:49:33.648Z,1220
2016-02-23T13:50:33.667Z,712
2016-02-23T13:51:33.607Z,628
2016-02-23T13:52:33.610Z,612
2016-02-23T13:53:33.565Z,832
2016-02-23T13:54:34.099Z,660
2016-02-23T13:55:33.508Z,628
2016-02-23T13:56:33.745Z,688
2016-02-23T13:57:33.466Z,688
2016-02-23T13:58:33.438Z,892
2016-02-23T13:59:33.440Z,904
2016-02-23T14:00:33.381Z,800
2016-02-23T14:01:33.508Z,844
2016-02-23T14:02:33.354Z,932
2016-02-23T14:03:33.576Z,1128
2016-02-23T14:04:33.298Z,1268